Time;durP1;ratioP1;P1;durP2;ratioP2;P2;SDS_P1;SDS_P2;PMS_P1;PMS_P2;Temp;Humidity;BMP_temperature;BMP_pressure;BME280_temperature;BME280_humidity;BME280_pressure;Samples;Min_cycle;Max_cycle;Signal;HPM_P1;HPM_P2
2022/07/30 00:01:20;;;;;;;10.70;3.88;;;10.30;95.80;;;;;;5041456;28;20866;-73
2022/07/30 00:03:47;;;;;;;6.72;2.13;;;10.40;95.70;;;;;;5036100;28;20373;-73
2022/07/30 00:06:15;;;;;;;3.90;1.95;;;10.50;95.50;;;;;;5039142;28;20155;-72
2022/07/30 00:08:42;;;;;;;8.02;2.03;;;10.60;95.80;;;;;;5039559;28;20028;-72
2022/07/30 00:11:10;;;;;;;6.55;1.55;;;10.60;95.60;;;;;;5034130;28;20083;-73
2022/07/30 00:13:38;;;;;;;3.97;1.60;;;10.80;95.50;;;;;;5040893;28;20039;-79
2022/07/30 00:16:06;;;;;;;4.45;1.48;;;10.90;95.60;;;;;;5036370;28;20025;-75
2022/07/30 00:18:37;;;;;;;;;;;11.00;95.50;;;;;;5032821;28;20484;-79
2022/07/30 00:21:05;;;;;;;5.40;1.73;;;10.90;95.20;;;;;;5032227;28;19921;-73
2022/07/30 00:23:32;;;;;;;6.88;2.85;;;11.10;95.50;;;;;;5031262;28;20013;-79
2022/07/30 00:26:01;;;;;;;5.88;2.33;;;11.10;95.50;;;;;;5028260;28;20230;-80
2022/07/30 00:28:30;;;;;;;5.70;1.70;;;11.20;95.40;;;;;;5033018;28;20029;-78
2022/07/30 00:31:06;;;;;;;9.75;1.77;;;11.30;95.40;;;;;;5018136;28;20102;-77
2022/07/30 00:33:33;;;;;;;4.82;1.50;;;11.40;95.40;;;;;;5020330;28;20436;-75
2022/07/30 00:36:01;;;;;;;7.32;1.70;;;11.50;95.40;;;;;;5043309;28;20025;-73
2022/07/30 00:38:28;;;;;;;6.60;1.60;;;11.60;95.20;;;;;;5031453;28;20422;-79
2022/07/30 00:40:58;;;;;;;8.02;2.67;;;11.60;95.00;;;;;;5029851;28;20556;-82
2022/07/30 00:43:26;;;;;;;7.78;2.00;;;11.80;94.70;;;;;;5041292;28;20028;-75
2022/07/30 00:45:56;;;;;;;5.30;1.65;;;11.90;94.70;;;;;;5039144;28;20124;-78
2022/07/30 00:48:24;;;;;;;5.10;1.80;;;12.10;94.60;;;;;;5010727;28;20029;-77
2022/07/30 00:50:52;;;;;;;5.32;1.95;;;12.20;94.50;;;;;;5035460;28;20082;-76
2022/07/30 00:53:19;;;;;;;8.75;2.90;;;12.30;94.30;;;;;;5020792;28;20052;-77
2022/07/30 00:55:46;;;;;;;17.60;2.85;;;12.30;94.30;;;;;;5039966;28;20017;-78
2022/07/30 00:58:14;;;;;;;6.53;1.70;;;12.40;94.30;;;;;;5026853;28;20045;-74
2022/07/30 01:00:41;;;;;;;5.90;1.80;;;12.40;94.10;;;;;;5038833;28;20116;-72
2022/07/30 01:03:08;;;;;;;7.50;2.03;;;12.50;94.30;;;;;;5032053;28;20024;-73
2022/07/30 01:05:36;;;;;;;7.90;1.63;;;12.60;94.40;;;;;;5045860;28;20025;-74
2022/07/30 01:08:03;;;;;;;8.18;1.85;;;12.80;94.30;;;;;;5040527;28;20123;-72
2022/07/30 01:10:31;;;;;;;7.53;1.38;;;12.80;94.30;;;;;;5033962;28;20021;-78
2022/07/30 01:13:00;;;;;;;5.20;1.92;;;13.00;93.90;;;;;;5026964;28;20025;-75
2022/07/30 01:15:28;;;;;;;8.32;1.58;;;13.00;93.70;;;;;;5037641;28;20025;-73
2022/07/30 01:17:59;;;;;;;7.50;1.65;;;13.10;93.90;;;;;;5041343;28;20351;-73
2022/07/30 01:20:31;;;;;;;9.45;2.22;;;13.20;94.20;;;;;;5039375;28;20029;-71
2022/07/30 01:23:05;;;;;;;7.72;1.83;;;13.30;93.90;;;;;;5038814;28;20017;-70
2022/07/30 01:25:44;;;;;;;7.78;1.58;;;13.50;93.50;;;;;;5037666;28;20028;-75
2022/07/30 01:28:16;;;;;;;4.85;1.55;;;13.60;93.20;;;;;;5025278;28;20123;-71
2022/07/30 01:30:45;;;;;;;4.72;1.63;;;13.70;93.20;;;;;;5048700;28;20544;-72
2022/07/30 01:33:15;;;;;;;5.15;1.60;;;13.90;93.50;;;;;;5034930;28;20041;-72
2022/07/30 01:35:46;;;;;;;6.43;1.65;;;13.90;92.90;;;;;;5038260;28;20013;-73
2022/07/30 01:38:16;;;;;;;4.35;2.00;;;14.00;92.60;;;;;;5030432;28;20025;-69
2022/07/30 01:40:45;;;;;;;5.82;1.88;;;14.00;92.90;;;;;;5038265;28;20029;-69
2022/07/30 01:43:13;;;;;;;8.05;1.60;;;14.20;92.60;;;;;;5035695;28;20056;-71
2022/07/30 01:45:41;;;;;;;5.80;1.73;;;14.40;92.30;;;;;;5035230;28;20474;-72
2022/07/30 01:48:11;;;;;;;5.40;1.52;;;14.50;92.20;;;;;;5034559;28;20021;-71
2022/07/30 01:50:42;;;;;;;8.52;2.03;;;14.60;92.00;;;;;;5037898;28;20075;-70
2022/07/30 01:53:13;;;;;;;5.72;2.65;;;14.80;92.10;;;;;;5036835;28;20052;-69
2022/07/30 01:55:41;;;;;;;6.85;1.70;;;15.00;91.50;;;;;;5028981;28;20438;-73
2022/07/30 01:58:10;;;;;;;3.80;1.48;;;15.10;90.50;;;;;;5013642;28;20404;-71
2022/07/30 02:00:40;;;;;;;7.13;1.85;;;15.30;89.90;;;;;;5026565;28;20033;-74
2022/07/30 02:03:09;;;;;;;6.55;1.60;;;15.40;90.20;;;;;;5036175;28;20587;-71
2022/07/30 02:05:37;;;;;;;8.55;1.50;;;15.70;89.80;;;;;;5034243;28;20021;-69
2022/07/30 02:08:35;;;;;;;5.78;1.88;;;15.80;89.40;;;;;;5037267;28;20025;-71
2022/07/30 02:11:08;;;;;;;4.70;1.23;;;16.00;88.20;;;;;;5032525;28;20028;-71
2022/07/30 02:13:52;;;;;;;6.82;1.60;;;16.10;87.00;;;;;;5036725;28;20482;-69
2022/07/30 02:16:30;;;;;;;6.45;1.50;;;16.20;86.30;;;;;;5034724;28;20070;-69
2022/07/30 02:19:09;;;;;;;6.88;2.05;;;16.40;87.90;;;;;;5035437;28;20023;-73
2022/07/30 02:21:43;;;;;;;5.75;1.30;;;16.60;86.50;;;;;;5018852;28;20064;-74
2022/07/30 02:24:19;;;;;;;3.28;1.70;;;16.60;84.30;;;;;;5027946;28;20028;-72
2022/07/30 02:26:55;;;;;;;4.72;1.20;;;16.80;86.80;;;;;;5033082;28;20087;-78
2022/07/30 02:29:24;;;;;;;5.22;1.10;;;16.80;83.40;;;;;;5034590;28;20094;-70
2022/07/30 02:31:56;;;;;;;5.15;1.00;;;16.90;82.30;;;;;;5038453;28;20040;-71
2022/07/30 02:34:26;;;;;;;5.70;1.35;;;16.90;82.80;;;;;;5034164;28;20029;-70
2022/07/30 02:36:55;;;;;;;4.78;1.13;;;16.90;82.10;;;;;;5039121;28;20052;-77
2022/07/30 02:39:23;;;;;;;6.50;1.10;;;17.00;81.40;;;;;;5050175;28;20028;-71
2022/07/30 02:41:53;;;;;;;4.85;1.30;;;17.30;82.40;;;;;;5058786;28;20032;-78
2022/07/30 02:44:23;;;;;;;3.88;1.00;;;17.70;81.00;;;;;;5058326;28;20036;-77
2022/07/30 02:46:52;;;;;;;3.78;1.02;;;17.90;79.00;;;;;;5058055;28;20032;-72
2022/07/30 02:49:21;;;;;;;6.82;1.00;;;18.20;78.90;;;;;;5057709;28;20052;-77
2022/07/30 02:51:50;;;;;;;4.15;2.03;;;18.40;77.70;;;;;;5043360;28;20838;-74
2022/07/30 02:54:19;;;;;;;5.95;1.42;;;18.50;77.20;;;;;;5037709;28;20844;-73
2022/07/30 02:56:48;;;;;;;2.97;1.10;;;18.80;76.20;;;;;;5037192;28;20017;-74
2022/07/30 02:59:19;;;;;;;5.28;1.00;;;19.10;75.40;;;;;;5036286;28;20083;-75
2022/07/30 03:01:48;;;;;;;3.78;0.82;;;19.10;74.80;;;;;;5034464;28;20535;-71
2022/07/30 03:04:20;;;;;;;3.88;1.02;;;19.20;74.80;;;;;;5034128;28;20047;-76
2022/07/30 03:06:49;;;;;;;5.15;1.10;;;19.40;74.40;;;;;;5036060;28;20068;-74
2022/07/30 03:09:18;;;;;;;4.97;0.82;;;19.60;73.50;;;;;;5035719;28;20021;-70
2022/07/30 03:11:48;;;;;;;5.65;1.27;;;19.80;73.60;;;;;;5035384;28;20021;-73
2022/07/30 03:14:16;;;;;;;5.55;1.67;;;20.00;72.60;;;;;;5037544;28;20469;-73
2022/07/30 03:16:48;;;;;;;4.43;1.35;;;20.20;72.00;;;;;;5040705;28;20086;-71
2022/07/30 03:19:16;;;;;;;4.95;0.85;;;20.50;72.10;;;;;;5040070;28;20386;-71
2022/07/30 03:21:46;;;;;;;2.78;0.90;;;20.80;71.00;;;;;;5040189;28;20119;-73
2022/07/30 03:24:14;;;;;;;4.63;1.20;;;21.10;70.90;;;;;;5022833;28;20044;-72
2022/07/30 03:26:43;;;;;;;4.38;1.00;;;21.30;69.30;;;;;;5037318;28;20033;-74
2022/07/30 03:29:12;;;;;;;5.13;1.10;;;21.60;68.20;;;;;;5041283;28;20031;-75
2022/07/30 03:31:40;;;;;;;4.97;1.20;;;21.90;67.10;;;;;;5040497;28;20028;-77
2022/07/30 03:34:09;;;;;;;3.72;1.30;;;22.30;65.00;;;;;;5045591;28;20029;-73
2022/07/30 03:36:40;;;;;;;5.22;1.33;;;22.50;65.30;;;;;;5060515;28;20493;-72
2022/07/30 03:39:08;;;;;;;7.05;1.20;;;22.60;64.20;;;;;;5055619;28;20041;-70
2022/07/30 03:41:39;;;;;;;4.43;1.15;;;22.90;63.70;;;;;;5019897;28;20751;-69
2022/07/30 03:44:09;;;;;;;6.93;1.42;;;23.30;63.60;;;;;;5021403;28;20379;-70
2022/07/30 03:46:37;;;;;;;4.63;1.10;;;23.70;62.50;;;;;;5039808;28;20103;-71
2022/07/30 03:49:05;;;;;;;3.78;1.13;;;23.50;62.10;;;;;;5060539;28;20111;-78
2022/07/30 03:51:37;;;;;;;5.28;1.17;;;23.20;61.90;;;;;;5037137;28;20033;-72
2022/07/30 03:54:08;;;;;;;;;;;22.90;62.40;;;;;;5037199;28;20171;-73
2022/07/30 03:56:36;;;;;;;4.68;1.40;;;22.70;63.00;;;;;;5037258;28;19912;-73
2022/07/30 03:59:04;;;;;;;3.92;1.30;;;23.30;63.50;;;;;;5022375;28;20752;-69
2022/07/30 04:01:32;;;;;;;5.10;1.65;;;24.00;61.30;;;;;;5041163;28;20029;-70
2022/07/30 04:04:09;;;;;;;2.78;1.10;;;23.90;61.20;;;;;;5060171;28;20074;-70
2022/07/30 04:06:38;;;;;;;1.88;0.85;;;24.00;61.00;;;;;;5053040;28;20027;-70
2022/07/30 04:09:10;;;;;;;6.45;1.40;;;24.00;59.30;;;;;;5022503;28;20032;-70
2022/07/30 04:11:39;;;;;;;3.72;1.45;;;23.90;60.20;;;;;;5036782;28;20024;-71
2022/07/30 04:14:06;;;;;;;6.45;1.38;;;23.60;59.30;;;;;;5038318;28;20075;-70
2022/07/30 04:16:43;;;;;;;1.02;0.60;;;23.00;61.50;;;;;;5039396;28;20557;-72
2022/07/30 04:19:36;;;;;;;4.13;0.90;;;23.20;62.30;;;;;;5040333;28;20107;-69
2022/07/30 04:22:06;;;;;;;3.33;0.80;;;22.90;61.80;;;;;;5031998;28;20033;-69
2022/07/30 04:24:34;;;;;;;3.45;0.60;;;23.30;61.20;;;;;;5035915;28;20017;-76
2022/07/30 04:27:03;;;;;;;4.05;0.77;;;23.50;60.00;;;;;;5038799;28;20548;-72
2022/07/30 04:29:30;;;;;;;2.40;0.85;;;23.20;60.20;;;;;;5038523;28;20394;-73
2022/07/30 04:31:57;;;;;;;2.78;0.90;;;22.70;60.70;;;;;;5036913;28;20166;-70
2022/07/30 04:34:25;;;;;;;6.07;1.08;;;22.20;61.60;;;;;;5039548;28;20044;-71
2022/07/30 04:36:52;;;;;;;3.50;0.80;;;21.20;63.20;;;;;;5038603;28;20087;-73
2022/07/30 04:39:20;;;;;;;2.83;0.85;;;20.60;65.00;;;;;;5038822;28;20013;-69
2022/07/30 04:41:47;;;;;;;2.95;1.30;;;20.10;65.60;;;;;;5037904;28;20512;-71
2022/07/30 04:44:14;;;;;;;1.85;0.70;;;19.20;66.50;;;;;;5037466;28;20066;-73
2022/07/30 04:46:42;;;;;;;3.65;1.70;;;18.80;68.30;;;;;;5038114;28;20397;-69
2022/07/30 04:49:10;;;;;;;4.82;0.73;;;18.70;68.60;;;;;;5039316;28;20453;-68
2022/07/30 04:51:39;;;;;;;2.17;0.80;;;18.80;68.10;;;;;;5038504;28;20545;-72
2022/07/30 04:54:10;;;;;;;2.42;1.20;;;18.80;68.70;;;;;;5035709;28;20033;-73
2022/07/30 04:56:37;;;;;;;5.28;1.10;;;18.80;68.90;;;;;;5038458;28;20020;-74
2022/07/30 04:59:06;;;;;;;7.53;1.08;;;18.80;68.20;;;;;;5032696;28;20057;-73
2022/07/30 05:01:37;;;;;;;3.47;0.98;;;18.70;68.00;;;;;;5038697;28;21041;-71
2022/07/30 05:04:06;;;;;;;3.67;0.80;;;18.70;68.70;;;;;;5037336;28;20029;-75
2022/07/30 05:06:34;;;;;;;4.65;1.15;;;18.70;69.40;;;;;;5035747;28;20537;-72
2022/07/30 05:09:02;;;;;;;3.60;0.90;;;18.60;68.10;;;;;;5036300;28;20041;-75
2022/07/30 05:11:29;;;;;;;5.82;0.90;;;18.30;69.60;;;;;;5039579;28;20021;-70
2022/07/30 05:13:56;;;;;;;3.85;1.05;;;18.30;69.10;;;;;;5037303;28;20036;-77
2022/07/30 05:16:24;;;;;;;3.80;0.70;;;18.20;70.20;;;;;;5039026;28;20028;-75
2022/07/30 05:18:51;;;;;;;3.50;1.40;;;18.10;70.30;;;;;;5032247;28;20049;-77
2022/07/30 05:21:18;;;;;;;3.13;1.08;;;17.80;70.50;;;;;;5039502;28;20033;-75
2022/07/30 05:23:47;;;;;;;3.75;1.20;;;17.60;71.50;;;;;;5034583;28;20563;-79
2022/07/30 05:26:17;;;;;;;4.28;1.15;;;17.50;72.50;;;;;;5038221;28;20035;-70
2022/07/30 05:28:45;;;;;;;4.68;1.10;;;17.60;71.80;;;;;;5034925;28;20023;-71
2022/07/30 05:31:12;;;;;;;4.47;1.33;;;17.70;71.50;;;;;;5039655;28;20028;-70
2022/07/30 05:33:39;;;;;;;1.58;0.80;;;17.70;71.10;;;;;;5039553;28;20024;-71
2022/07/30 05:36:07;;;;;;;4.63;0.98;;;17.80;73.20;;;;;;5035015;28;20062;-74
2022/07/30 05:38:35;;;;;;;4.22;1.10;;;17.90;71.00;;;;;;5039250;28;20025;-70
2022/07/30 05:41:02;;;;;;;4.85;1.20;;;17.90;71.30;;;;;;5037570;28;20026;-74
2022/07/30 05:43:29;;;;;;;2.78;0.90;;;18.00;71.10;;;;;;5039993;28;20025;-73
2022/07/30 05:45:57;;;;;;;3.67;0.90;;;17.80;70.40;;;;;;5036328;28;20027;-69
2022/07/30 05:48:25;;;;;;;2.40;0.80;;;17.80;73.50;;;;;;5039324;28;20013;-68
2022/07/30 05:50:53;;;;;;;4.20;0.70;;;18.00;73.00;;;;;;5035119;28;20063;-71
2022/07/30 05:53:20;;;;;;;3.70;0.90;;;18.10;71.70;;;;;;5039099;28;20048;-73
2022/07/30 05:55:47;;;;;;;3.70;0.80;;;18.10;70.80;;;;;;5034227;28;20017;-68
2022/07/30 05:58:14;;;;;;;3.17;1.42;;;18.20;73.00;;;;;;5035477;28;20049;-68
2022/07/30 06:00:42;;;;;;;6.35;1.10;;;18.30;71.60;;;;;;5037700;28;20480;-68
2022/07/30 06:03:09;;;;;;;4.07;0.90;;;18.50;70.80;;;;;;5038057;28;20067;-67
2022/07/30 06:05:36;;;;;;;5.28;1.13;;;18.70;70.00;;;;;;5036530;28;20044;-71
2022/07/30 06:08:04;;;;;;;3.35;1.05;;;18.60;69.80;;;;;;5037003;28;20013;-69
2022/07/30 06:10:31;;;;;;;2.20;0.70;;;18.60;69.40;;;;;;5037646;28;20047;-69
2022/07/30 06:13:01;;;;;;;2.92;0.98;;;18.80;69.60;;;;;;5022529;28;20155;-70
2022/07/30 06:15:29;;;;;;;5.32;0.95;;;19.20;70.00;;;;;;5035722;28;20151;-68
2022/07/30 06:17:57;;;;;;;3.17;0.90;;;19.70;68.90;;;;;;5049310;28;20063;-70
2022/07/30 06:20:25;;;;;;;3.17;0.90;;;20.40;67.60;;;;;;5058394;28;20039;-72
2022/07/30 06:22:52;;;;;;;6.47;1.00;;;20.90;66.20;;;;;;5042019;28;20025;-74
2022/07/30 06:25:19;;;;;;;4.13;1.10;;;21.50;66.20;;;;;;5038135;28;20060;-67
2022/07/30 06:27:47;;;;;;;3.25;1.58;;;21.90;64.60;;;;;;5048491;28;20020;-68
2022/07/30 06:30:14;;;;;;;2.80;0.75;;;22.10;63.70;;;;;;5058039;28;20115;-69
2022/07/30 06:32:44;;;;;;;2.20;0.80;;;22.10;64.60;;;;;;5059071;28;20024;-71
2022/07/30 06:35:11;;;;;;;3.50;0.80;;;21.70;64.90;;;;;;5057690;28;20024;-71
2022/07/30 06:37:41;;;;;;;3.85;1.23;;;21.10;65.40;;;;;;5058786;28;20513;-72
2022/07/30 06:40:09;;;;;;;4.43;1.00;;;20.20;67.20;;;;;;5046652;28;20398;-68
2022/07/30 06:42:37;;;;;;;5.65;1.30;;;19.30;70.50;;;;;;5038019;28;20036;-68
2022/07/30 06:45:04;;;;;;;7.80;2.75;;;18.60;72.90;;;;;;5044057;28;20058;-67
2022/07/30 06:47:33;;;;;;;6.82;1.88;;;17.70;76.30;;;;;;5057678;28;20107;-68
2022/07/30 06:50:02;;;;;;;5.95;1.77;;;17.00;78.90;;;;;;5063011;28;20496;-70
2022/07/30 06:52:29;;;;;;;6.28;2.08;;;16.60;81.00;;;;;;5047179;28;20029;-67
2022/07/30 06:54:56;;;;;;;7.25;1.70;;;16.30;82.20;;;;;;5047838;28;20029;-68
2022/07/30 06:57:23;;;;;;;6.28;1.80;;;16.10;82.80;;;;;;5060736;28;20052;-70
2022/07/30 06:59:54;;;;;;;11.27;2.90;;;15.90;83.90;;;;;;5063232;28;20052;-71
2022/07/30 07:02:21;;;;;;;13.10;2.35;;;15.80;84.80;;;;;;5061267;28;20301;-68
2022/07/30 07:04:48;;;;;;;6.32;1.77;;;15.60;85.10;;;;;;5061300;28;20029;-71
2022/07/30 07:07:15;;;;;;;8.88;2.08;;;15.50;86.00;;;;;;5061789;28;20389;-69
2022/07/30 07:09:43;;;;;;;9.55;2.30;;;15.30;86.90;;;;;;5062194;28;20096;-71
2022/07/30 07:12:10;;;;;;;6.68;2.03;;;15.30;86.90;;;;;;5050780;28;20040;-69
2022/07/30 07:14:37;;;;;;;7.93;2.17;;;15.00;88.10;;;;;;5046079;28;20060;-72
2022/07/30 07:17:04;;;;;;;6.70;1.95;;;14.90;88.90;;;;;;5062019;28;20111;-70
2022/07/30 07:19:32;;;;;;;8.07;2.60;;;14.60;89.40;;;;;;5062627;28;20033;-69
2022/07/30 07:21:59;;;;;;;10.65;2.17;;;14.60;90.10;;;;;;5061324;28;20483;-79
2022/07/30 07:24:26;;;;;;;6.43;2.25;;;14.60;90.30;;;;;;5061779;28;20512;-79
2022/07/30 07:26:54;;;;;;;5.75;1.63;;;14.40;90.40;;;;;;5056199;28;20385;-78
2022/07/30 07:29:21;;;;;;;7.45;2.20;;;14.30;90.70;;;;;;5039960;28;20068;-72
2022/07/30 07:31:48;;;;;;;7.47;1.88;;;14.30;90.80;;;;;;5041344;28;20100;-76
2022/07/30 07:34:16;;;;;;;7.75;1.52;;;14.30;91.10;;;;;;5038546;28;20032;-68
2022/07/30 07:36:43;;;;;;;5.32;2.28;;;14.30;91.30;;;;;;5040801;28;20017;-69
2022/07/30 07:39:10;;;;;;;8.75;2.63;;;14.20;91.40;;;;;;5040283;28;20036;-71
2022/07/30 07:41:38;;;;;;;7.38;2.20;;;14.20;91.70;;;;;;5041682;28;20063;-71
2022/07/30 07:44:05;;;;;;;10.55;2.05;;;14.10;91.70;;;;;;5040677;28;20425;-70
2022/07/30 07:46:32;;;;;;;8.57;1.90;;;14.00;92.40;;;;;;5038789;28;20027;-75
2022/07/30 07:49:00;;;;;;;6.55;2.13;;;14.00;92.50;;;;;;5040234;28;20108;-70
2022/07/30 07:51:27;;;;;;;10.15;2.63;;;13.90;92.60;;;;;;5040824;28;20021;-73
2022/07/30 07:53:55;;;;;;;5.72;1.45;;;13.80;93.00;;;;;;5041768;28;20025;-69
2022/07/30 07:56:23;;;;;;;8.77;1.95;;;13.80;93.20;;;;;;5038930;28;20505;-68
2022/07/30 07:58:52;;;;;;;7.68;2.15;;;13.70;93.70;;;;;;5040373;28;20045;-76
2022/07/30 08:01:20;;;;;;;12.25;2.20;;;13.70;93.90;;;;;;5036709;28;20121;-73
2022/07/30 08:03:48;;;;;;;6.38;2.15;;;13.50;94.00;;;;;;5038878;28;20112;-77
2022/07/30 08:06:15;;;;;;;7.43;2.53;;;13.50;94.40;;;;;;5040905;28;20032;-70
2022/07/30 08:08:43;;;;;;;10.80;3.13;;;13.40;94.70;;;;;;5037411;28;20529;-70
2022/07/30 08:11:10;;;;;;;9.75;4.13;;;13.30;95.00;;;;;;5040393;28;20033;-69
2022/07/30 08:13:37;;;;;;;17.17;5.32;;;13.30;95.10;;;;;;5039660;28;20563;-73
2022/07/30 08:16:08;;;;;;;9.07;3.92;;;13.20;95.30;;;;;;5038198;28;20040;-70
2022/07/30 08:18:36;;;;;;;8.30;3.42;;;13.20;95.60;;;;;;5038465;28;20079;-70
2022/07/30 08:21:04;;;;;;;10.40;3.63;;;13.10;95.60;;;;;;5036907;28;20045;-74
2022/07/30 08:23:32;;;;;;;11.30;3.67;;;13.10;95.80;;;;;;5038327;28;20442;-73
2022/07/30 08:25:59;;;;;;;9.23;4.32;;;13.00;96.00;;;;;;5039957;28;20359;-73
2022/07/30 08:28:27;;;;;;;13.63;5.70;;;13.00;96.20;;;;;;5034658;28;20017;-71
2022/07/30 08:30:54;;;;;;;10.63;5.22;;;12.90;96.30;;;;;;5039336;28;20518;-70
2022/07/30 08:33:21;;;;;;;14.85;5.10;;;12.80;96.70;;;;;;5040192;28;20047;-72
2022/07/30 08:35:49;;;;;;;11.32;5.50;;;12.80;97.00;;;;;;5038451;28;20049;-69
2022/07/30 08:38:16;;;;;;;11.25;5.72;;;12.80;97.10;;;;;;5036881;28;20493;-69
2022/07/30 08:40:43;;;;;;;12.45;5.15;;;12.70;97.30;;;;;;5038566;28;20044;-76
2022/07/30 08:43:11;;;;;;;9.60;4.82;;;12.70;97.50;;;;;;5036278;28;20017;-69
2022/07/30 08:45:39;;;;;;;13.70;5.18;;;12.60;97.80;;;;;;5017371;28;20208;-73
2022/07/30 08:48:13;;;;;;;12.90;6.03;;;12.50;98.00;;;;;;5036705;28;20174;-69
2022/07/30 08:50:40;;;;;;;12.00;5.00;;;12.50;98.20;;;;;;5034925;28;20028;-71
2022/07/30 08:53:08;;;;;;;13.82;4.93;;;12.40;98.30;;;;;;5046084;28;20470;-71
2022/07/30 08:55:35;;;;;;;10.00;5.25;;;12.40;98.40;;;;;;5039788;28;20025;-72
2022/07/30 08:58:04;;;;;;;14.57;6.63;;;12.40;98.60;;;;;;5036891;28;20692;-73
2022/07/30 09:00:31;;;;;;;13.48;6.53;;;12.30;98.80;;;;;;5034643;28;20029;-71
2022/07/30 09:03:00;;;;;;;15.20;7.90;;;12.30;99.20;;;;;;5039733;28;20017;-73
2022/07/30 09:05:27;;;;;;;19.13;10.10;;;12.30;99.20;;;;;;5037880;28;20022;-70
2022/07/30 09:07:55;;;;;;;23.17;12.45;;;12.20;99.10;;;;;;5052161;28;20020;-69
2022/07/30 09:10:23;;;;;;;27.17;15.90;;;12.30;99.40;;;;;;5060392;28;20021;-71
2022/07/30 09:12:51;;;;;;;24.58;14.60;;;12.20;99.40;;;;;;5058257;28;20029;-68
2022/07/30 09:15:21;;;;;;;26.05;13.20;;;12.20;99.50;;;;;;5059620;28;20611;-72
2022/07/30 09:17:55;;;;;;;12.45;8.15;;;12.20;99.50;;;;;;5059019;28;20028;-70
2022/07/30 09:20:29;;;;;;;13.65;7.18;;;12.20;99.60;;;;;;5045577;28;20036;-72
2022/07/30 09:22:58;;;;;;;19.95;7.38;;;12.20;99.80;;;;;;5039939;28;20035;-73
2022/07/30 09:25:43;;;;;;;14.02;6.22;;;12.10;99.90;;;;;;5038906;28;20021;-69
2022/07/30 09:28:12;;;;;;;16.52;6.85;;;12.10;99.90;;;;;;5034682;28;20029;-73
2022/07/30 09:30:48;;;;;;;14.32;6.50;;;12.00;99.90;;;;;;5035399;28;20029;-77
2022/07/30 09:33:30;;;;;;;12.27;6.88;;;11.90;99.90;;;;;;5038805;28;20029;-71
2022/07/30 09:35:58;;;;;;;17.15;8.95;;;11.90;99.90;;;;;;5035912;28;20023;-69
2022/07/30 09:38:25;;;;;;;20.40;9.52;;;11.80;99.90;;;;;;5038410;28;20017;-72
2022/07/30 09:40:54;;;;;;;16.65;7.85;;;11.70;99.90;;;;;;5039923;28;20199;-68
2022/07/30 09:43:22;;;;;;;18.20;7.32;;;11.70;99.90;;;;;;5036473;28;20091;-68
2022/07/30 09:45:57;;;;;;;14.85;7.75;;;11.60;99.90;;;;;;5034044;28;20081;-81
2022/07/30 09:48:28;;;;;;;10.90;7.15;;;11.60;99.90;;;;;;5036288;28;20021;-77
2022/07/30 09:50:55;;;;;;;15.00;7.97;;;11.50;99.90;;;;;;5037258;28;20557;-77
2022/07/30 09:53:23;;;;;;;16.73;7.47;;;11.40;99.90;;;;;;5035417;28;20429;-75
2022/07/30 09:55:50;;;;;;;16.48;7.85;;;11.40;99.90;;;;;;5036334;28;20020;-75
2022/07/30 09:58:18;;;;;;;12.00;7.15;;;11.40;99.90;;;;;;5036846;28;20068;-75
2022/07/30 10:00:45;;;;;;;13.20;7.90;;;11.40;99.90;;;;;;5036215;28;20078;-70
2022/07/30 10:03:17;;;;;;;18.23;9.23;;;11.30;99.90;;;;;;5038119;28;20438;-76
2022/07/30 10:05:52;;;;;;;14.93;8.55;;;11.30;99.90;;;;;;5035612;28;20141;-71
2022/07/30 10:08:20;;;;;;;15.85;9.63;;;11.20;99.90;;;;;;5037759;28;20025;-69
2022/07/30 10:10:48;;;;;;;12.45;7.75;;;11.10;99.90;;;;;;5034957;28;20428;-74
2022/07/30 10:13:18;;;;;;;15.43;8.48;;;11.20;99.90;;;;;;5034273;28;20029;-69
2022/07/30 10:15:45;;;;;;;21.48;8.60;;;11.10;99.90;;;;;;5038137;28;20017;-69
2022/07/30 10:18:14;;;;;;;15.57;8.40;;;11.10;99.90;;;;;;5039001;28;20067;-70
2022/07/30 10:20:43;;;;;;;15.68;8.57;;;11.00;99.90;;;;;;5037573;28;20063;-74
2022/07/30 10:23:11;;;;;;;15.82;8.95;;;11.00;99.90;;;;;;5036222;28;20758;-76
2022/07/30 10:25:38;;;;;;;15.70;8.20;;;11.00;99.90;;;;;;5039011;28;20405;-76
2022/07/30 10:28:06;;;;;;;17.35;9.30;;;10.90;99.90;;;;;;5040239;28;20440;-70
2022/07/30 10:30:34;;;;;;;13.68;8.95;;;11.00;99.90;;;;;;5049152;28;20497;-70
2022/07/30 10:33:02;;;;;;;13.80;8.60;;;10.90;99.90;;;;;;5037299;28;20032;-70
2022/07/30 10:35:30;;;;;;;14.98;9.07;;;10.80;99.90;;;;;;5038406;28;20033;-72
2022/07/30 10:37:58;;;;;;;14.15;8.68;;;10.90;99.90;;;;;;5038089;28;20013;-71
2022/07/30 10:40:33;;;;;;;14.05;7.97;;;10.90;99.90;;;;;;5042044;28;20776;-72
2022/07/30 10:43:16;;;;;;;18.63;9.32;;;10.90;99.90;;;;;;5057123;28;20029;-72
2022/07/30 10:46:15;;;;;;;16.48;10.25;;;10.80;99.90;;;;;;5059179;28;20490;-74
2022/07/30 10:48:42;;;;;;;17.15;10.27;;;10.80;99.90;;;;;;5037775;28;20033;-72
2022/07/30 10:51:10;;;;;;;16.80;10.00;;;10.80;99.90;;;;;;5037265;28;20104;-71
2022/07/30 10:53:46;;;;;;;15.60;9.40;;;10.70;99.90;;;;;;5053621;28;20028;-70
2022/07/30 10:56:24;;;;;;;14.80;9.65;;;10.70;99.90;;;;;;5056896;28;20477;-72
2022/07/30 10:58:59;;;;;;;21.13;10.68;;;10.70;99.90;;;;;;5058754;28;20400;-74
2022/07/30 11:01:47;;;;;;;18.17;10.45;;;10.60;99.90;;;;;;5039698;28;20041;-74
2022/07/30 11:04:32;;;;;;;16.20;9.55;;;10.50;99.90;;;;;;5025953;28;20413;-71
2022/07/30 11:07:21;;;;;;;21.83;11.18;;;10.50;99.90;;;;;;5037827;28;20365;-72
2022/07/30 11:09:49;;;;;;;20.13;10.98;;;10.50;99.90;;;;;;5038443;28;20024;-69
2022/07/30 11:12:44;;;;;;;24.00;11.13;;;10.40;99.90;;;;;;5042725;28;20452;-72
2022/07/30 11:15:16;;;;;;;22.33;11.32;;;10.40;99.90;;;;;;5017007;28;20017;-75
2022/07/30 11:18:08;;;;;;;20.23;10.63;;;10.30;99.90;;;;;;5037462;28;20423;-73
2022/07/30 11:20:36;;;;;;;17.77;10.60;;;10.30;99.90;;;;;;5046925;28;20482;-74
2022/07/30 11:23:37;;;;;;;21.15;9.85;;;10.30;99.90;;;;;;5038843;28;20108;-72
2022/07/30 11:26:05;;;;;;;16.52;10.98;;;10.20;99.90;;;;;;5006650;28;20380;-70
2022/07/30 11:28:44;;;;;;;18.90;10.65;;;10.20;99.90;;;;;;5018902;28;20103;-70
2022/07/30 11:31:31;;;;;;;23.55;11.48;;;10.20;99.90;;;;;;5032488;28;20370;-69
2022/07/30 11:34:19;;;;;;;22.88;11.57;;;10.10;99.90;;;;;;5019204;28;20049;-70
2022/07/30 11:37:17;;;;;;;16.13;10.93;;;10.00;99.90;;;;;;5048627;28;20065;-73
2022/07/30 11:39:54;;;;;;;17.05;11.02;;;10.00;99.90;;;;;;5057753;28;20029;-72
2022/07/30 11:42:35;;;;;;;19.92;10.52;;;10.00;99.90;;;;;;5040198;28;20474;-72
2022/07/30 11:45:17;;;;;;;16.00;10.48;;;10.00;99.90;;;;;;5041745;28;20025;-74
2022/07/30 11:47:50;;;;;;;15.95;11.18;;;9.90;99.90;;;;;;5052690;28;20082;-69
2022/07/30 11:50:30;;;;;;;21.67;11.15;;;10.00;99.90;;;;;;5033179;28;20051;-71
2022/07/30 11:53:00;;;;;;;20.27;10.82;;;9.90;99.90;;;;;;5057703;28;20025;-74
2022/07/30 11:55:38;;;;;;;21.70;10.88;;;9.90;99.90;;;;;;5059385;28;20354;-72
2022/07/30 11:58:09;;;;;;;24.25;12.52;;;9.90;99.90;;;;;;5048491;28;20045;-72
2022/07/30 12:00:40;;;;;;;23.35;10.63;;;9.90;99.90;;;;;;5041276;28;20087;-74
2022/07/30 12:03:18;;;;;;;18.30;11.00;;;9.80;99.90;;;;;;5042205;28;20033;-73
2022/07/30 12:05:46;;;;;;;14.82;10.25;;;9.80;99.90;;;;;;5042848;28;20104;-76
2022/07/30 12:08:15;;;;;;;17.67;11.07;;;9.80;99.90;;;;;;5041810;28;20025;-71
2022/07/30 12:10:43;;;;;;;18.05;11.63;;;9.80;99.90;;;;;;5043067;28;20393;-80
2022/07/30 12:13:17;;;;;;;17.88;10.18;;;9.70;99.90;;;;;;5063562;28;20020;-71
2022/07/30 12:15:46;;;;;;;21.88;11.10;;;9.70;99.90;;;;;;5047212;28;20078;-72
2022/07/30 12:18:22;;;;;;;22.42;11.73;;;9.70;99.90;;;;;;5049834;28;20024;-72
2022/07/30 12:21:01;;;;;;;18.60;11.40;;;9.70;99.90;;;;;;5048216;28;20041;-74
2022/07/30 12:23:29;;;;;;;18.55;11.10;;;9.60;99.90;;;;;;5039359;28;20048;-76
2022/07/30 12:25:57;;;;;;;16.98;10.07;;;9.60;99.90;;;;;;5041486;28;20032;-72
2022/07/30 12:28:31;;;;;;;17.90;12.60;;;9.60;99.90;;;;;;5042555;28;20025;-75
2022/07/30 12:31:03;;;;;;;17.27;12.90;;;9.60;99.90;;;;;;5046794;28;20021;-73
2022/07/30 12:33:30;;;;;;;18.38;10.75;;;9.60;99.90;;;;;;5047123;28;20376;-74
2022/07/30 12:35:59;;;;;;;17.55;11.50;;;9.50;99.90;;;;;;5061101;28;20023;-73
2022/07/30 12:38:28;;;;;;;21.45;13.18;;;9.50;99.90;;;;;;5059518;28;20040;-72
2022/07/30 12:41:01;;;;;;;21.55;11.98;;;9.50;99.90;;;;;;5047494;28;20028;-72
2022/07/30 12:43:46;;;;;;;20.38;13.38;;;9.50;99.90;;;;;;5047253;28;20493;-74
2022/07/30 12:46:19;;;;;;;23.75;11.82;;;9.50;99.90;;;;;;5039887;28;20099;-70
2022/07/30 12:49:01;;;;;;;19.83;11.60;;;9.40;99.90;;;;;;5040580;28;20032;-70
2022/07/30 12:51:31;;;;;;;18.65;10.98;;;9.40;99.90;;;;;;5038647;28;20021;-70
2022/07/30 12:54:00;;;;;;;26.95;12.55;;;9.40;99.90;;;;;;5054919;28;20028;-69
2022/07/30 12:56:29;;;;;;;20.25;11.65;;;9.40;99.90;;;;;;5058817;28;20416;-70
2022/07/30 12:58:58;;;;;;;20.77;12.73;;;9.40;99.90;;;;;;5022571;28;20103;-69